createdAt,value
2017-12-25T00:00:26.662Z,14.3
2017-12-25T00:01:29.657Z,14.2
2017-12-25T00:02:32.063Z,14.3
2017-12-25T00:03:34.488Z,14.2
2017-12-25T00:04:36.910Z,14.3
2017-12-25T00:05:39.345Z,14.2
2017-12-25T00:06:41.784Z,14.3
2017-12-25T00:07:44.483Z,14.3
2017-12-25T00:08:46.904Z,14.3
2017-12-25T00:09:49.611Z,14.3
2017-12-25T00:10:52.034Z,14.4
2017-12-25T00:11:54.731Z,14.4
2017-12-25T00:12:57.133Z,14.4
2017-12-25T00:13:59.557Z,14.4
2017-12-25T00:15:01.980Z,14.4
2017-12-25T00:16:04.683Z,14.4
2017-12-25T00:17:07.387Z,14.4
2017-12-25T00:18:09.810Z,14.4
2017-12-25T00:19:12.220Z,14.4
2017-12-25T00:20:14.639Z,14.4
2017-12-25T00:21:17.054Z,14.4
2017-12-25T00:22:19.476Z,14.4
2017-12-25T00:23:21.892Z,14.4
2017-12-25T00:24:24.326Z,14.4
2017-12-25T00:25:26.745Z,14.4
2017-12-25T00:26:29.457Z,14.4
2017-12-25T00:27:31.877Z,14.5
2017-12-25T00:28:34.295Z,14.4
2017-12-25T00:29:36.717Z,14.5
2017-12-25T00:30:39.131Z,14.4
2017-12-25T00:31:41.536Z,14.5
2017-12-25T00:32:43.953Z,14.5
2017-12-25T00:33:46.376Z,14.5
2017-12-25T00:34:48.794Z,14.5
2017-12-25T00:35:51.213Z,14.5
2017-12-25T00:36:53.620Z,14.4
2017-12-25T00:37:56.039Z,14.5
2017-12-25T00:38:58.457Z,14.5
2017-12-25T00:40:01.150Z,14.5
2017-12-25T00:41:03.570Z,14.5
2017-12-25T00:42:06.286Z,14.5
2017-12-25T00:43:08.991Z,14.6
2017-12-25T00:44:11.408Z,14.5
2017-12-25T00:45:13.828Z,14.6
2017-12-25T00:46:16.520Z,14.6
2017-12-25T00:47:18.945Z,14.6
2017-12-25T00:48:21.360Z,14.6
2017-12-25T00:49:23.774Z,14.6
2017-12-25T00:50:26.495Z,14.6
2017-12-25T00:51:28.910Z,14.6
2017-12-25T00:52:31.325Z,14.6
2017-12-25T00:53:33.735Z,14.5
2017-12-25T00:54:36.150Z,14.6
2017-12-25T00:55:38.891Z,14.6
2017-12-25T00:56:41.312Z,14.6
2017-12-25T00:57:43.714Z,14.6
2017-12-25T00:58:46.132Z,14.6
2017-12-25T00:59:48.562Z,14.6
2017-12-25T01:00:50.983Z,14.6
2017-12-25T01:01:53.397Z,14.6
2017-12-25T01:02:55.824Z,14.6
2017-12-25T01:03:58.238Z,14.6
2017-12-25T01:05:00.654Z,14.6
2017-12-25T01:06:03.068Z,14.6
2017-12-25T01:07:05.493Z,14.6
2017-12-25T01:08:07.910Z,14.5
2017-12-25T01:09:10.323Z,14.5
2017-12-25T01:10:12.733Z,14.5
2017-12-25T01:11:15.155Z,14.5
2017-12-25T01:12:17.573Z,14.4
2017-12-25T01:13:19.992Z,14.4
2017-12-25T01:14:22.400Z,14.4
2017-12-25T01:15:24.817Z,14.4
2017-12-25T01:16:27.233Z,14.3
2017-12-25T01:17:29.922Z,14.3
2017-12-25T01:18:32.338Z,14.2
2017-12-25T01:19:34.784Z,14.2
2017-12-25T01:20:37.785Z,14.2
2017-12-25T01:21:40.497Z,14.2
2017-12-25T01:22:42.915Z,14.1
2017-12-25T01:23:45.314Z,14.1
2017-12-25T01:24:47.748Z,14.1
2017-12-25T01:25:50.157Z,14.1
2017-12-25T01:26:52.582Z,14.1
2017-12-25T01:27:54.999Z,14.1
2017-12-25T01:28:57.698Z,14.1
2017-12-25T01:30:00.121Z,14
2017-12-25T01:31:02.551Z,14
2017-12-25T01:32:04.959Z,14
2017-12-25T01:33:07.374Z,14
2017-12-25T01:34:09.790Z,14
2017-12-25T01:35:12.210Z,14
2017-12-25T01:36:14.628Z,14
2017-12-25T01:37:17.037Z,14
2017-12-25T01:38:19.465Z,14
2017-12-25T01:39:21.875Z,14
2017-12-25T01:40:24.297Z,14
2017-12-25T01:41:26.715Z,14
2017-12-25T01:42:29.131Z,14
2017-12-25T01:43:31.545Z,14
2017-12-25T01:44:33.968Z,14
2017-12-25T01:45:36.368Z,14
2017-12-25T01:46:38.790Z,14
2017-12-25T01:47:41.196Z,14.1
2017-12-25T01:48:43.610Z,14.1
2017-12-25T01:49:46.036Z,14.1
2017-12-25T01:50:48.446Z,14.1
2017-12-25T01:51:50.863Z,14.1
2017-12-25T01:52:53.281Z,14.1
2017-12-25T01:53:55.694Z,14.1
2017-12-25T01:54:58.124Z,14.1
2017-12-25T01:56:00.541Z,14
2017-12-25T01:57:02.950Z,14
2017-12-25T01:58:05.372Z,14
2017-12-25T01:59:07.794Z,14
2017-12-25T02:00:10.208Z,14
2017-12-25T02:01:12.615Z,14
2017-12-25T02:02:15.036Z,14
2017-12-25T02:03:17.452Z,14
2017-12-25T02:04:19.862Z,14
2017-12-25T02:05:22.276Z,14
2017-12-25T02:06:24.980Z,14
2017-12-25T02:07:27.400Z,14
2017-12-25T02:08:30.100Z,14
2017-12-25T02:09:32.506Z,13.9
2017-12-25T02:10:34.926Z,13.9
2017-12-25T02:11:37.352Z,13.9
2017-12-25T02:12:39.767Z,13.9
2017-12-25T02:13:42.176Z,13.9
2017-12-25T02:14:44.597Z,13.9
2017-12-25T02:15:47.011Z,14
2017-12-25T02:16:49.712Z,13.9
2017-12-25T02:17:52.120Z,13.9
2017-12-25T02:18:54.532Z,14
2017-12-25T02:19:57.233Z,14
2017-12-25T02:21:00.220Z,14
2017-12-25T02:22:02.633Z,14
2017-12-25T02:23:05.048Z,13.9
2017-12-25T02:24:07.466Z,13.9
2017-12-25T02:25:10.161Z,13.9
2017-12-25T02:26:12.576Z,13.9
2017-12-25T02:27:14.987Z,13.9
2017-12-25T02:28:17.394Z,13.9
2017-12-25T02:29:20.094Z,13.9
2017-12-25T02:30:22.509Z,13.9
2017-12-25T02:31:24.923Z,13.9
2017-12-25T02:32:27.632Z,13.9
2017-12-25T02:33:30.054Z,13.9
2017-12-25T02:34:32.473Z,13.9
2017-12-25T02:35:35.749Z,13.9
2017-12-25T02:36:38.164Z,13.9
2017-12-25T02:37:40.586Z,13.9
2017-12-25T02:38:43.001Z,13.9
2017-12-25T02:39:45.415Z,13.9
2017-12-25T02:40:47.836Z,13.9
2017-12-25T02:41:50.246Z,13.8
2017-12-25T02:42:52.671Z,13.8
2017-12-25T02:43:55.376Z,13.8
2017-12-25T02:44:57.780Z,13.8
2017-12-25T02:46:00.492Z,13.8
2017-12-25T02:47:02.914Z,13.7
2017-12-25T02:48:05.320Z,13.8
2017-12-25T02:49:07.741Z,13.7
2017-12-25T02:50:10.151Z,13.7
2017-12-25T02:51:12.846Z,13.7
2017-12-25T02:52:15.266Z,13.7
2017-12-25T02:53:17.675Z,13.7
2017-12-25T02:54:20.092Z,13.7
2017-12-25T02:55:22.516Z,13.7
2017-12-25T02:56:24.925Z,13.7
2017-12-25T02:57:27.342Z,13.7
2017-12-25T02:58:30.062Z,13.7
2017-12-25T02:59:32.477Z,13.7
2017-12-25T03:00:35.204Z,13.8
2017-12-25T03:01:37.629Z,13.7
2017-12-25T03:02:40.074Z,13.8
2017-12-25T03:03:42.483Z,13.8
2017-12-25T03:04:44.903Z,13.8
2017-12-25T03:05:47.309Z,13.7
2017-12-25T03:06:49.721Z,13.7
2017-12-25T03:07:52.423Z,13.7
2017-12-25T03:08:54.840Z,13.7
2017-12-25T03:09:57.260Z,13.7
2017-12-25T03:10:59.688Z,13.7
2017-12-25T03:12:02.109Z,13.7
2017-12-25T03:13:04.530Z,13.7
2017-12-25T03:14:06.937Z,13.7
2017-12-25T03:15:09.922Z,13.7
2017-12-25T03:16:12.339Z,13.7
2017-12-25T03:17:14.753Z,13.7
2017-12-25T03:18:17.172Z,13.7
2017-12-25T03:19:19.643Z,13.7
2017-12-25T03:20:22.065Z,13.7
2017-12-25T03:21:24.836Z,13.7
2017-12-25T03:22:27.535Z,13.7
2017-12-25T03:23:30.283Z,13.7
2017-12-25T03:24:32.697Z,13.7
2017-12-25T03:25:35.118Z,13.7
2017-12-25T03:26:37.537Z,13.7
2017-12-25T03:27:39.937Z,13.7
2017-12-25T03:28:42.632Z,13.7
2017-12-25T03:29:45.058Z,13.7
2017-12-25T03:30:47.476Z,13.7
2017-12-25T03:31:50.178Z,13.7
2017-12-25T03:32:52.914Z,13.7
2017-12-25T03:33:55.324Z,13.7
2017-12-25T03:34:58.098Z,13.7
2017-12-25T03:36:00.508Z,13.7
2017-12-25T03:37:02.996Z,13.7
2017-12-25T03:38:05.410Z,13.6
2017-12-25T03:39:07.834Z,13.6
2017-12-25T03:40:10.240Z,13.7
2017-12-25T03:41:12.746Z,13.7
2017-12-25T03:42:15.156Z,13.7
2017-12-25T03:43:17.575Z,13.7
2017-12-25T03:44:20.070Z,13.7
2017-12-25T03:45:22.541Z,13.7
2017-12-25T03:46:24.950Z,13.7
2017-12-25T03:47:27.374Z,13.7
2017-12-25T03:48:29.792Z,13.7
2017-12-25T03:49:32.206Z,13.7
2017-12-25T03:50:34.695Z,13.7
2017-12-25T03:51:37.697Z,13.7
2017-12-25T03:52:40.106Z,13.7
2017-12-25T03:53:42.538Z,13.7
2017-12-25T03:54:44.963Z,13.8
2017-12-25T03:55:47.376Z,13.7
2017-12-25T03:56:49.788Z,13.8
2017-12-25T03:57:52.206Z,13.8
2017-12-25T03:58:54.619Z,13.8
2017-12-25T03:59:57.041Z,13.8
2017-12-25T04:00:59.468Z,13.8
2017-12-25T04:02:01.882Z,13.8
2017-12-25T04:03:04.302Z,13.8
2017-12-25T04:04:06.714Z,13.8
2017-12-25T04:05:09.136Z,13.8
2017-12-25T04:06:11.829Z,13.8
2017-12-25T04:07:14.252Z,13.8
2017-12-25T04:08:16.658Z,13.8
2017-12-25T04:09:19.072Z,13.8
2017-12-25T04:10:21.772Z,13.8
2017-12-25T04:11:24.189Z,13.8
2017-12-25T04:12:26.875Z,13.8
2017-12-25T04:13:29.581Z,13.8
2017-12-25T04:14:32.281Z,13.8
2017-12-25T04:15:34.702Z,13.8
2017-12-25T04:16:37.118Z,13.8
2017-12-25T04:17:39.526Z,13.9
2017-12-25T04:18:41.941Z,13.9
2017-12-25T04:19:44.370Z,13.9
2017-12-25T04:20:46.787Z,13.9
2017-12-25T04:21:49.206Z,13.8
2017-12-25T04:22:51.622Z,13.9
2017-12-25T04:23:54.038Z,13.8
2017-12-25T04:24:56.463Z,13.8
2017-12-25T04:25:59.173Z,13.8
2017-12-25T04:27:01.574Z,13.8
2017-12-25T04:28:03.996Z,13.8
2017-12-25T04:29:06.404Z,13.8
2017-12-25T04:30:08.826Z,13.8
2017-12-25T04:31:11.237Z,13.8
2017-12-25T04:32:13.659Z,13.8
2017-12-25T04:33:16.073Z,13.8
2017-12-25T04:34:18.502Z,13.8
2017-12-25T04:35:20.921Z,13.8
2017-12-25T04:36:23.339Z,13.8
2017-12-25T04:37:25.752Z,13.8
2017-12-25T04:38:28.173Z,13.8
2017-12-25T04:39:30.871Z,13.8
2017-12-25T04:40:33.292Z,13.8
2017-12-25T04:41:35.695Z,13.8
2017-12-25T04:42:38.112Z,13.8
2017-12-25T04:43:40.532Z,13.8
2017-12-25T04:44:42.944Z,13.8
2017-12-25T04:45:45.369Z,13.8
2017-12-25T04:46:47.806Z,13.8
2017-12-25T04:47:50.206Z,13.8
2017-12-25T04:48:52.631Z,13.8
2017-12-25T04:49:55.044Z,13.8
2017-12-25T04:50:57.452Z,13.8
2017-12-25T04:51:59.876Z,13.8
2017-12-25T04:53:02.277Z,13.8
2017-12-25T04:54:04.694Z,13.8
2017-12-25T04:55:07.111Z,13.8
2017-12-25T04:56:09.529Z,13.8
2017-12-25T04:57:11.947Z,13.8
2017-12-25T04:58:14.651Z,13.8
2017-12-25T04:59:17.060Z,13.8
2017-12-25T05:00:19.478Z,13.8
2017-12-25T05:01:21.893Z,13.8
2017-12-25T05:02:24.308Z,13.8
2017-12-25T05:03:26.725Z,13.8
2017-12-25T05:04:29.136Z,13.8
2017-12-25T05:05:31.555Z,13.8
2017-12-25T05:06:34.248Z,13.8
2017-12-25T05:07:36.957Z,13.8
2017-12-25T05:08:39.428Z,13.8
2017-12-25T05:09:41.846Z,13.7
2017-12-25T05:10:44.258Z,13.7
2017-12-25T05:11:46.682Z,13.7
2017-12-25T05:12:49.378Z,13.7
2017-12-25T05:13:52.116Z,13.7
2017-12-25T05:14:54.809Z,13.7
2017-12-25T05:15:57.512Z,13.7
2017-12-25T05:17:00.230Z,13.7
2017-12-25T05:18:02.645Z,13.7
2017-12-25T05:19:05.066Z,13.7
2017-12-25T05:20:07.475Z,13.7
2017-12-25T05:21:09.911Z,13.7
2017-12-25T05:22:12.332Z,13.7
2017-12-25T05:23:14.749Z,13.7
2017-12-25T05:24:17.150Z,13.7
2017-12-25T05:25:19.596Z,13.7
2017-12-25T05:26:22.317Z,13.6
2017-12-25T05:27:25.025Z,13.6
2017-12-25T05:28:27.727Z,13.6
2017-12-25T05:29:30.157Z,13.7
2017-12-25T05:30:32.570Z,13.7
2017-12-25T05:31:34.986Z,13.7
2017-12-25T05:32:37.397Z,13.7
2017-12-25T05:33:39.823Z,13.7
2017-12-25T05:34:42.261Z,13.7
2017-12-25T05:35:44.673Z,13.7
2017-12-25T05:36:47.085Z,13.7
2017-12-25T05:37:49.505Z,13.7
2017-12-25T05:38:51.923Z,13.7
2017-12-25T05:39:54.347Z,13.7
2017-12-25T05:40:57.071Z,13.7
2017-12-25T05:41:59.485Z,13.7
2017-12-25T05:43:01.905Z,13.7
2017-12-25T05:44:04.318Z,13.7
2017-12-25T05:45:06.741Z,13.7
2017-12-25T05:46:09.179Z,13.6
2017-12-25T05:47:11.876Z,13.7
2017-12-25T05:48:14.302Z,13.7
2017-12-25T05:49:16.716Z,13.7
2017-12-25T05:50:19.119Z,13.7
2017-12-25T05:51:21.550Z,13.7
2017-12-25T05:52:24.236Z,13.7
2017-12-25T05:53:26.664Z,13.7
2017-12-25T05:54:29.087Z,13.6
2017-12-25T05:55:31.491Z,13.7
2017-12-25T05:56:33.927Z,13.6
2017-12-25T05:57:36.354Z,13.6
2017-12-25T05:58:39.065Z,13.7
2017-12-25T05:59:41.482Z,13.7
2017-12-25T06:00:43.900Z,13.7
2017-12-25T06:01:46.309Z,13.7
2017-12-25T06:02:48.712Z,13.7
2017-12-25T06:03:51.443Z,13.7
2017-12-25T06:04:53.871Z,13.7
2017-12-25T06:05:56.274Z,13.7
2017-12-25T06:06:58.695Z,13.7
2017-12-25T06:08:01.118Z,13.7
2017-12-25T06:09:03.553Z,13.7
2017-12-25T06:10:05.972Z,13.7
2017-12-25T06:11:08.693Z,13.7
2017-12-25T06:12:11.094Z,13.7
2017-12-25T06:13:13.520Z,13.7
2017-12-25T06:14:15.951Z,13.7
2017-12-25T06:15:18.364Z,13.7
2017-12-25T06:16:20.819Z,13.7
2017-12-25T06:17:23.513Z,13.7
2017-12-25T06:18:25.931Z,13.7
2017-12-25T06:19:28.348Z,13.7
2017-12-25T06:20:30.763Z,13.7
2017-12-25T06:21:33.482Z,13.6
2017-12-25T06:22:35.900Z,13.7
2017-12-25T06:23:38.308Z,13.7
2017-12-25T06:24:40.727Z,13.7
2017-12-25T06:25:43.154Z,13.7
2017-12-25T06:26:45.557Z,13.7
2017-12-25T06:27:47.974Z,13.7
2017-12-25T06:28:50.395Z,13.7
2017-12-25T06:29:53.369Z,13.7
2017-12-25T06:30:55.788Z,13.7
2017-12-25T06:31:58.197Z,13.7
2017-12-25T06:33:00.626Z,13.7
2017-12-25T06:34:03.037Z,13.7
2017-12-25T06:35:05.450Z,13.7
2017-12-25T06:36:08.144Z,13.7
2017-12-25T06:37:10.561Z,13.7
2017-12-25T06:38:12.981Z,13.7
2017-12-25T06:39:15.403Z,13.7
2017-12-25T06:40:17.806Z,13.7
2017-12-25T06:41:20.218Z,13.6
2017-12-25T06:42:22.643Z,13.7
2017-12-25T06:43:25.058Z,13.7
2017-12-25T06:44:27.465Z,13.7
2017-12-25T06:45:29.872Z,13.7
2017-12-25T06:46:32.279Z,13.7
2017-12-25T06:47:34.708Z,13.7
2017-12-25T06:48:37.123Z,13.7
2017-12-25T06:49:39.538Z,13.7
2017-12-25T06:50:41.951Z,13.8
2017-12-25T06:51:44.371Z,13.8
2017-12-25T06:52:46.790Z,13.8
2017-12-25T06:53:49.213Z,13.8
2017-12-25T06:54:51.618Z,13.8
2017-12-25T06:55:54.033Z,13.8
2017-12-25T06:56:56.452Z,13.8
2017-12-25T06:57:58.868Z,13.8
2017-12-25T06:59:01.276Z,13.8
2017-12-25T07:00:03.697Z,13.7
2017-12-25T07:01:06.124Z,13.7
2017-12-25T07:02:08.530Z,13.7
2017-12-25T07:03:10.948Z,13.7
2017-12-25T07:04:13.373Z,13.7
2017-12-25T07:05:15.785Z,13.7
2017-12-25T07:06:18.487Z,13.6
2017-12-25T07:07:20.921Z,13.6
2017-12-25T07:08:23.535Z,13.6
2017-12-25T07:09:26.339Z,13.6
2017-12-25T07:10:28.758Z,13.6
2017-12-25T07:11:32.213Z,13.6
2017-12-25T07:12:34.907Z,13.6
2017-12-25T07:13:37.618Z,13.6
2017-12-25T07:14:40.038Z,13.7
2017-12-25T07:15:42.448Z,13.7
2017-12-25T07:16:44.875Z,13.6
2017-12-25T07:17:47.289Z,13.6
2017-12-25T07:18:49.697Z,13.6
2017-12-25T07:19:52.410Z,13.6
2017-12-25T07:20:54.830Z,13.6
2017-12-25T07:21:57.241Z,13.6
2017-12-25T07:22:59.668Z,13.6
2017-12-25T07:24:02.087Z,13.6
2017-12-25T07:25:04.505Z,13.6
2017-12-25T07:26:06.923Z,13.6
2017-12-25T07:27:09.347Z,13.5
2017-12-25T07:28:12.035Z,13.5
2017-12-25T07:29:14.458Z,13.5
2017-12-25T07:30:16.885Z,13.5
2017-12-25T07:31:19.299Z,13.4
2017-12-25T07:32:21.719Z,13.4
2017-12-25T07:33:24.137Z,13.4
2017-12-25T07:34:26.851Z,13.4
2017-12-25T07:35:29.557Z,13.5
2017-12-25T07:36:31.972Z,13.4
2017-12-25T07:37:34.662Z,13.5
2017-12-25T07:38:37.080Z,13.5
2017-12-25T07:39:39.500Z,13.5
2017-12-25T07:40:41.926Z,13.5
2017-12-25T07:41:44.356Z,13.5
2017-12-25T07:42:47.056Z,13.5
2017-12-25T07:43:49.470Z,13.5
2017-12-25T07:44:51.901Z,13.5
2017-12-25T07:45:54.347Z,13.5
2017-12-25T07:46:56.789Z,13.5
2017-12-25T07:47:59.501Z,13.5
2017-12-25T07:49:01.931Z,13.5
2017-12-25T07:50:04.350Z,13.5
2017-12-25T07:51:06.808Z,13.5
2017-12-25T07:52:09.246Z,13.5
2017-12-25T07:53:11.661Z,13.5
2017-12-25T07:54:14.085Z,13.5
2017-12-25T07:55:17.073Z,13.5
2017-12-25T07:56:19.776Z,13.5
2017-12-25T07:57:22.194Z,13.5
2017-12-25T07:58:24.611Z,13.5
2017-12-25T07:59:27.019Z,13.4
2017-12-25T08:00:29.474Z,13.4
2017-12-25T08:01:31.969Z,13.4
2017-12-25T08:02:34.356Z,13.4
2017-12-25T08:03:36.766Z,13.4
2017-12-25T08:04:39.185Z,13.4
2017-12-25T08:05:41.594Z,13.3
2017-12-25T08:06:44.023Z,13.3
2017-12-25T08:07:46.426Z,13.4
2017-12-25T08:08:48.851Z,13.4
2017-12-25T08:09:51.267Z,13.4
2017-12-25T08:10:53.697Z,13.4
2017-12-25T08:11:56.104Z,13.4
2017-12-25T08:12:58.823Z,13.4
2017-12-25T08:14:01.519Z,13.4
2017-12-25T08:15:03.936Z,13.4
2017-12-25T08:16:06.647Z,13.4
2017-12-25T08:17:09.070Z,13.4
2017-12-25T08:18:12.489Z,13.4
2017-12-25T08:19:14.916Z,13.4
2017-12-25T08:20:17.316Z,13.4
2017-12-25T08:21:19.734Z,13.4
2017-12-25T08:22:25.151Z,13.4
2017-12-25T08:23:33.504Z,13.4
2017-12-25T08:24:41.692Z,13.4
2017-12-25T08:25:48.793Z,13.4
2017-12-25T08:26:54.340Z,13.4
2017-12-25T08:28:01.598Z,13.5
2017-12-25T08:29:06.318Z,13.5
2017-12-25T08:30:08.734Z,13.4
2017-12-25T08:31:11.150Z,13.5
2017-12-25T08:32:13.571Z,13.5
2017-12-25T08:33:15.975Z,13.5
2017-12-25T08:34:18.400Z,13.5
2017-12-25T08:35:20.818Z,13.5
2017-12-25T08:36:23.510Z,13.5
2017-12-25T08:37:25.936Z,13.5
2017-12-25T08:38:28.352Z,13.5
2017-12-25T08:39:30.786Z,13.4
2017-12-25T08:40:33.669Z,13.4
2017-12-25T08:41:36.849Z,13.4
2017-12-25T08:42:39.559Z,13.4
2017-12-25T08:43:41.976Z,13.4
2017-12-25T08:44:44.428Z,13.4
2017-12-25T08:45:46.869Z,13.4
2017-12-25T08:46:49.296Z,13.4
2017-12-25T08:47:51.995Z,13.4
2017-12-25T08:48:54.757Z,13.4
2017-12-25T08:49:57.912Z,13.4
2017-12-25T08:51:00.327Z,13.4
2017-12-25T08:52:03.043Z,13.4
2017-12-25T08:53:05.737Z,13.3
2017-12-25T08:54:08.167Z,13.4
2017-12-25T08:55:10.582Z,13.4
2017-12-25T08:56:13.030Z,13.4
2017-12-25T08:57:15.865Z,13.4
2017-12-25T08:58:19.117Z,13.4
2017-12-25T08:59:21.930Z,13.4
2017-12-25T09:00:24.353Z,13.4
2017-12-25T09:01:26.761Z,13.5
2017-12-25T09:02:29.178Z,13.5
2017-12-25T09:03:31.596Z,13.5
2017-12-25T09:04:34.010Z,13.5
2017-12-25T09:05:36.419Z,13.5
2017-12-25T09:06:39.324Z,13.5
2017-12-25T09:07:41.734Z,13.5
2017-12-25T09:08:44.156Z,13.5
2017-12-25T09:09:46.583Z,13.5
2017-12-25T09:10:48.994Z,13.5
2017-12-25T09:11:51.417Z,13.5
2017-12-25T09:12:53.831Z,13.5
2017-12-25T09:13:56.271Z,13.5
2017-12-25T09:14:58.690Z,13.5
2017-12-25T09:16:01.102Z,13.5
2017-12-25T09:17:03.520Z,13.5
2017-12-25T09:18:05.951Z,13.5
2017-12-25T09:19:08.954Z,13.5
2017-12-25T09:20:11.383Z,13.5
2017-12-25T09:21:13.801Z,13.6
2017-12-25T09:22:16.214Z,13.5
2017-12-25T09:23:18.914Z,13.6
2017-12-25T09:24:21.347Z,13.5
2017-12-25T09:25:23.773Z,13.5
2017-12-25T09:26:26.210Z,13.5
2017-12-25T09:27:28.666Z,13.5
2017-12-25T09:28:31.100Z,13.5
2017-12-25T09:29:33.561Z,13.5
2017-12-25T09:30:36.006Z,13.5
2017-12-25T09:31:38.453Z,13.5
2017-12-25T09:32:40.896Z,13.5
2017-12-25T09:33:43.339Z,13.5
2017-12-25T09:34:45.774Z,13.5
2017-12-25T09:35:48.215Z,13.5
2017-12-25T09:36:50.942Z,13.5
2017-12-25T09:37:53.381Z,13.5
2017-12-25T09:38:55.825Z,13.5
2017-12-25T09:39:58.834Z,13.5
2017-12-25T09:41:01.267Z,13.5
2017-12-25T09:42:03.725Z,13.5
2017-12-25T09:43:06.472Z,13.5
2017-12-25T09:44:08.901Z,13.5
2017-12-25T09:45:11.342Z,13.6
2017-12-25T09:46:13.767Z,13.6
2017-12-25T09:47:16.218Z,13.6
2017-12-25T09:48:18.642Z,13.6
2017-12-25T09:49:21.060Z,13.6
2017-12-25T09:50:23.493Z,13.7
2017-12-25T09:51:26.240Z,13.7
2017-12-25T09:52:28.967Z,13.7
2017-12-25T09:53:31.419Z,13.7
2017-12-25T09:54:33.884Z,13.7
2017-12-25T09:55:36.321Z,13.8
2017-12-25T09:56:39.082Z,13.7
2017-12-25T09:57:41.467Z,13.7
2017-12-25T09:58:44.510Z,13.8
2017-12-25T09:59:46.967Z,13.8
2017-12-25T10:00:49.403Z,13.8
2017-12-25T10:01:51.851Z,13.8
2017-12-25T10:02:54.575Z,13.8
2017-12-25T10:03:57.011Z,13.8
2017-12-25T10:04:59.447Z,13.9
2017-12-25T10:06:01.875Z,13.9
2017-12-25T10:07:04.309Z,13.9
2017-12-25T10:08:06.738Z,13.9
2017-12-25T10:09:09.193Z,13.9
2017-12-25T10:10:11.931Z,14
2017-12-25T10:11:14.373Z,14
2017-12-25T10:12:16.793Z,14
2017-12-25T10:13:19.222Z,14
2017-12-25T10:14:21.644Z,14
2017-12-25T10:15:24.073Z,13.9
2017-12-25T10:16:26.535Z,13.9
2017-12-25T10:17:29.281Z,13.9
2017-12-25T10:18:31.723Z,13.9
2017-12-25T10:19:34.174Z,13.9
2017-12-25T10:20:36.606Z,13.9
2017-12-25T10:21:39.068Z,13.9
2017-12-25T10:22:41.526Z,13.9
2017-12-25T10:23:43.963Z,13.9
2017-12-25T10:24:46.443Z,13.9
2017-12-25T10:25:48.862Z,13.9
2017-12-25T10:26:51.305Z,13.9
2017-12-25T10:27:53.722Z,13.9
2017-12-25T10:28:56.449Z,13.9
2017-12-25T10:29:59.104Z,13.9
2017-12-25T10:31:01.564Z,13.9
2017-12-25T10:32:04.067Z,13.9
2017-12-25T10:33:06.775Z,13.9
2017-12-25T10:34:10.491Z,13.9
2017-12-25T10:35:16.362Z,13.9
2017-12-25T10:36:19.614Z,13.9
2017-12-25T10:37:23.099Z,13.9
2017-12-25T10:38:25.713Z,13.9
2017-12-25T10:39:28.199Z,13.9
2017-12-25T10:40:30.660Z,13.9
2017-12-25T10:41:33.121Z,13.9
2017-12-25T10:42:35.558Z,13.9
2017-12-25T10:43:37.994Z,13.9
2017-12-25T10:44:40.445Z,13.9
2017-12-25T10:45:42.875Z,13.9
2017-12-25T10:46:45.337Z,13.8
2017-12-25T10:47:47.774Z,13.9
2017-12-25T10:48:50.208Z,13.8
2017-12-25T10:49:52.661Z,13.8
2017-12-25T10:50:55.091Z,13.8
2017-12-25T10:51:57.529Z,13.8
2017-12-25T10:52:59.953Z,13.8
2017-12-25T10:54:02.384Z,13.8
2017-12-25T10:55:04.854Z,13.7
2017-12-25T10:56:07.553Z,13.7
2017-12-25T10:57:09.960Z,13.7
2017-12-25T10:58:12.376Z,13.7
2017-12-25T10:59:14.786Z,13.7
2017-12-25T11:00:17.211Z,13.7
2017-12-25T11:01:19.907Z,13.7
2017-12-25T11:02:22.322Z,13.7
2017-12-25T11:03:24.740Z,13.7
2017-12-25T11:04:27.165Z,13.7
2017-12-25T11:05:29.582Z,13.7
2017-12-25T11:06:32.288Z,13.7
2017-12-25T11:07:34.700Z,13.7
2017-12-25T11:08:37.117Z,13.7
2017-12-25T11:09:39.539Z,13.7
2017-12-25T11:10:42.242Z,13.7
2017-12-25T11:11:44.652Z,13.7
2017-12-25T11:12:47.076Z,13.7
2017-12-25T11:13:49.488Z,13.7
2017-12-25T11:14:51.916Z,13.7
2017-12-25T11:15:54.620Z,13.7
2017-12-25T11:16:57.036Z,13.7
2017-12-25T11:17:59.736Z,13.7
2017-12-25T11:19:02.160Z,13.7
2017-12-25T11:20:04.580Z,13.7
2017-12-25T11:21:07.001Z,13.7
2017-12-25T11:22:09.406Z,13.7
2017-12-25T11:23:11.828Z,13.7
2017-12-25T11:24:14.246Z,13.7
2017-12-25T11:25:16.668Z,13.7
2017-12-25T11:26:19.073Z,13.7
2017-12-25T11:27:21.483Z,13.7
2017-12-25T11:28:23.902Z,13.7
2017-12-25T11:29:26.314Z,13.7
2017-12-25T11:30:28.725Z,13.7
2017-12-25T11:31:31.154Z,13.7
2017-12-25T11:32:33.560Z,13.7
2017-12-25T11:33:36.298Z,13.7
2017-12-25T11:34:38.718Z,13.7
2017-12-25T11:35:41.160Z,13.7
2017-12-25T11:36:43.577Z,13.7
2017-12-25T11:37:46.001Z,13.7
2017-12-25T11:38:48.411Z,13.7
2017-12-25T11:39:50.835Z,13.7
2017-12-25T11:40:53.245Z,13.7
2017-12-25T11:41:55.956Z,13.7
2017-12-25T11:42:58.376Z,13.7
2017-12-25T11:44:00.786Z,13.7
2017-12-25T11:45:03.202Z,13.6
2017-12-25T11:46:05.625Z,13.7
2017-12-25T11:47:08.031Z,13.7
2017-12-25T11:48:10.464Z,13.7
2017-12-25T11:49:12.880Z,13.7
2017-12-25T11:50:15.298Z,13.7
2017-12-25T11:51:17.760Z,13.7
2017-12-25T11:52:20.132Z,13.8
2017-12-25T11:53:22.540Z,13.8
2017-12-25T11:54:25.243Z,13.8
2017-12-25T11:55:27.729Z,13.8
2017-12-25T11:56:30.093Z,13.8
2017-12-25T11:57:32.491Z,13.8
2017-12-25T11:58:34.907Z,13.8
2017-12-25T11:59:37.325Z,13.8
2017-12-25T12:00:39.745Z,13.8
2017-12-25T12:01:42.162Z,13.8
2017-12-25T12:02:44.570Z,13.8
2017-12-25T12:03:46.986Z,13.8
2017-12-25T12:04:49.692Z,13.8
2017-12-25T12:05:52.385Z,13.8
2017-12-25T12:06:54.793Z,13.8
2017-12-25T12:07:57.219Z,13.8
2017-12-25T12:08:59.629Z,13.9
2017-12-25T12:10:02.062Z,13.9
2017-12-25T12:11:05.063Z,13.9
2017-12-25T12:12:07.759Z,13.9
2017-12-25T12:13:10.175Z,13.8
2017-12-25T12:14:12.877Z,13.9
2017-12-25T12:15:15.295Z,13.9
2017-12-25T12:16:17.987Z,13.9
2017-12-25T12:17:20.403Z,13.9
2017-12-25T12:18:22.817Z,13.9
2017-12-25T12:19:26.464Z,13.8
2017-12-25T12:20:29.081Z,13.8
2017-12-25T12:21:31.548Z,13.8
2017-12-25T12:22:33.985Z,13.8
2017-12-25T12:23:36.402Z,13.8
2017-12-25T12:24:38.820Z,13.8
2017-12-25T12:25:41.525Z,13.8
2017-12-25T12:26:43.948Z,13.8
2017-12-25T12:27:46.651Z,13.8
2017-12-25T12:28:49.077Z,13.9
2017-12-25T12:29:51.491Z,13.8
2017-12-25T12:30:54.246Z,13.8
2017-12-25T12:31:57.612Z,13.8
2017-12-25T12:33:00.327Z,13.8
2017-12-25T12:34:03.147Z,13.8
2017-12-25T12:35:06.959Z,13.8
2017-12-25T12:36:14.549Z,13.8
2017-12-25T12:37:17.779Z,13.8
2017-12-25T12:38:22.779Z,13.8
2017-12-25T12:39:25.181Z,13.8
2017-12-25T12:40:27.877Z,13.8
2017-12-25T12:41:30.408Z,13.8
2017-12-25T12:42:33.426Z,13.8
2017-12-25T12:43:36.169Z,13.8
2017-12-25T12:44:38.823Z,13.8
2017-12-25T12:45:41.351Z,13.8
2017-12-25T12:46:43.939Z,13.8
2017-12-25T12:47:46.743Z,13.8
2017-12-25T12:48:49.265Z,13.8
2017-12-25T12:49:51.831Z,13.8
2017-12-25T12:50:54.244Z,13.8
2017-12-25T12:51:56.664Z,13.8
2017-12-25T12:52:59.086Z,13.8
2017-12-25T12:54:01.779Z,13.8
2017-12-25T12:55:04.194Z,13.8
2017-12-25T12:56:06.615Z,13.8
2017-12-25T12:57:09.323Z,13.8
2017-12-25T12:58:11.758Z,13.8
2017-12-25T12:59:14.160Z,13.8
2017-12-25T13:00:16.629Z,13.7
2017-12-25T13:01:19.116Z,13.7
2017-12-25T13:02:21.644Z,13.7
2017-12-25T13:03:24.167Z,13.7
2017-12-25T13:04:26.654Z,13.7
2017-12-25T13:05:29.165Z,13.7
2017-12-25T13:06:31.692Z,13.7
2017-12-25T13:07:34.197Z,13.7
2017-12-25T13:08:36.975Z,13.7
2017-12-25T13:09:39.522Z,13.7
2017-12-25T13:10:42.024Z,13.7
2017-12-25T13:11:44.562Z,13.7
2017-12-25T13:12:47.069Z,13.7
2017-12-25T13:13:49.864Z,13.7
2017-12-25T13:14:52.389Z,13.7
2017-12-25T13:15:55.190Z,13.7
2017-12-25T13:16:59.096Z,13.7
2017-12-25T13:18:01.774Z,13.7
2017-12-25T13:19:04.275Z,13.7
2017-12-25T13:20:06.796Z,13.6
2017-12-25T13:21:09.310Z,13.6
2017-12-25T13:22:12.129Z,13.6
2017-12-25T13:23:14.622Z,13.6
2017-12-25T13:24:17.163Z,13.6
2017-12-25T13:25:19.660Z,13.6
2017-12-25T13:26:22.206Z,13.6
2017-12-25T13:27:24.671Z,13.6
2017-12-25T13:28:27.185Z,13.6
2017-12-25T13:29:29.697Z,13.6
2017-12-25T13:30:32.186Z,13.6
2017-12-25T13:31:34.689Z,13.6
2017-12-25T13:32:37.198Z,13.6
2017-12-25T13:33:39.716Z,13.6
2017-12-25T13:34:42.545Z,13.6
2017-12-25T13:35:45.047Z,13.6
2017-12-25T13:36:47.559Z,13.6
2017-12-25T13:37:50.075Z,13.6
2017-12-25T13:38:52.635Z,13.6
2017-12-25T13:39:55.074Z,13.6
2017-12-25T13:40:57.629Z,13.6
2017-12-25T13:42:00.136Z,13.5
2017-12-25T13:43:03.297Z,13.5
2017-12-25T13:44:05.803Z,13.5
2017-12-25T13:45:08.286Z,13.5
2017-12-25T13:46:11.047Z,13.5
2017-12-25T13:47:13.753Z,13.5
2017-12-25T13:48:16.554Z,13.5
2017-12-25T13:49:19.130Z,13.5
2017-12-25T13:50:21.854Z,13.5
2017-12-25T13:51:24.402Z,13.5
2017-12-25T13:52:26.909Z,13.5
2017-12-25T13:53:29.715Z,13.5
2017-12-25T13:54:32.491Z,13.5
2017-12-25T13:55:34.994Z,13.5